Time;durP1;ratioP1;P1;durP2;ratioP2;P2;SDS_P1;SDS_P2;PMS_P1;PMS_P2;Temp;Humidity;BMP_temperature;BMP_pressure;BME280_temperature;BME280_humidity;BME280_pressure;Samples;Min_cycle;Max_cycle;Signal;HPM_P1;HPM_P2
2023/01/25 00:01:56;;;;;;;;;;;7.30;91.40;;;;;;5044474;28;20387;-89
2023/01/25 00:04:22;;;;;;;;;;;7.30;91.50;;;;;;5052965;28;19952;-88
2023/01/25 00:06:48;;;;;;;;;;;7.30;91.40;;;;;;5052740;28;19997;-88
2023/01/25 00:09:14;;;;;;;;;;;7.40;91.20;;;;;;5056739;28;20415;-88
2023/01/25 00:11:39;;;;;;;;;;;7.40;91.00;;;;;;5056672;28;19952;-88
2023/01/25 00:14:05;;;;;;;;;;;7.40;90.90;;;;;;5056473;28;19945;-88
2023/01/25 00:16:31;;;;;;;;;;;7.40;90.90;;;;;;5056053;28;19954;-89
2023/01/25 00:18:57;;;;;;;;;;;7.40;90.90;;;;;;5056546;28;19946;-89
2023/01/25 00:21:23;;;;;;;;;;;7.40;90.90;;;;;;5056455;28;19969;-89
2023/01/25 00:23:49;;;;;;;;;;;7.40;91.00;;;;;;5056450;28;19941;-89
2023/01/25 00:26:15;;;;;;;;;;;7.40;91.00;;;;;;5055876;28;19960;-89
2023/01/25 00:28:40;;;;;;;;;;;7.40;90.90;;;;;;5038121;28;19951;-89
2023/01/25 00:31:06;;;;;;;;;;;7.40;90.70;;;;;;5056300;28;19999;-89
2023/01/25 00:33:54;;;;;;;;;;;7.30;90.60;;;;;;5056277;28;19948;-88
2023/01/25 00:36:26;;;;;;;;;;;7.20;90.90;;;;;;5055961;28;19949;-88
2023/01/25 00:38:52;;;;;;;;;;;7.30;91.30;;;;;;5056165;28;19945;-89
2023/01/25 00:41:17;;;;;;;;;;;7.30;91.40;;;;;;5056102;28;19986;-89
2023/01/25 00:43:43;;;;;;;;;;;7.30;91.50;;;;;;5056306;28;19942;-89
2023/01/25 00:46:08;;;;;;;;;;;7.30;91.30;;;;;;5055732;28;20433;-89
2023/01/25 00:48:34;;;;;;;;;;;7.20;91.20;;;;;;5055748;28;19980;-89
2023/01/25 00:51:00;;;;;;;;;;;7.20;91.10;;;;;;5055918;28;19947;-88
2023/01/25 00:53:26;;;;;;;;;;;7.20;91.00;;;;;;5055826;28;19960;-88
2023/01/25 00:55:52;;;;;;;;;;;7.10;91.10;;;;;;5055503;28;19947;-88
2023/01/25 00:58:17;;;;;;;;;;;7.10;91.30;;;;;;5037637;28;19948;-89
2023/01/25 01:00:43;;;;;;;;;;;7.10;91.50;;;;;;5055731;28;19936;-88
2023/01/25 01:03:08;;;;;;;;;;;7.10;91.70;;;;;;5055722;28;19965;-88
2023/01/25 01:05:35;;;;;;;;;;;7.00;91.80;;;;;;5055630;28;20394;-88
2023/01/25 01:08:01;;;;;;;;;;;7.00;91.90;;;;;;5055308;28;20021;-88
2023/01/25 01:10:26;;;;;;;;;;;7.00;92.00;;;;;;5055529;28;20344;-88
2023/01/25 01:12:52;;;;;;;;;;;7.00;92.10;;;;;;5045787;23;19944;-88
2023/01/25 01:15:17;;;;;;;;;;;7.00;92.30;;;;;;5069008;28;20632;-88
2023/01/25 01:17:43;;;;;;;;;;;7.00;92.50;;;;;;5074775;28;19940;-88
2023/01/25 01:20:11;;;;;;;;;;;7.00;92.50;;;;;;5055884;28;20774;-88
2023/01/25 01:22:36;;;;;;;;;;;7.00;92.60;;;;;;5072431;28;20395;-88
2023/01/25 01:25:02;;;;;;;;;;;6.90;92.60;;;;;;5075303;28;19960;-88
2023/01/25 01:27:27;;;;;;;;;;;6.90;92.60;;;;;;5075210;28;19958;-88
2023/01/25 01:29:53;;;;;;;;;;;6.90;92.50;;;;;;5075221;28;19949;-88
2023/01/25 01:32:18;;;;;;;;;;;6.90;92.40;;;;;;5075197;28;19953;-88
2023/01/25 01:34:44;;;;;;;;;;;6.80;92.30;;;;;;5075067;28;19938;-88
2023/01/25 01:37:09;;;;;;;;;;;6.80;92.20;;;;;;5075050;28;19984;-88
2023/01/25 01:39:35;;;;;;;;;;;6.70;92.00;;;;;;5062742;28;20029;-88
2023/01/25 01:42:00;;;;;;;;;;;6.70;92.00;;;;;;5059632;28;19988;-88
2023/01/25 01:44:46;;;;;;;;;;;6.60;91.80;;;;;;5074992;28;19936;-88
2023/01/25 01:47:17;;;;;;;;;;;6.50;91.70;;;;;;5074847;28;20013;-88
2023/01/25 01:49:45;;;;;;;;;;;6.50;92.00;;;;;;5074853;28;19943;-87
2023/01/25 01:52:16;;;;;;;;;;;6.50;92.30;;;;;;5074698;28;19965;-87
2023/01/25 01:54:48;;;;;;;;;;;6.50;92.60;;;;;;5074703;28;19937;-87
2023/01/25 01:57:15;;;;;;;;;;;6.60;92.50;;;;;;5074620;28;19950;-87
2023/01/25 01:59:43;;;;;;;;;;;6.60;92.30;;;;;;5074616;28;19979;-87
2023/01/25 02:02:09;;;;;;;;;;;6.70;92.10;;;;;;5074826;28;19974;-87
2023/01/25 02:04:35;;;;;;;;;;;6.60;91.70;;;;;;5051384;28;19946;-88
2023/01/25 02:07:00;;;;;;;;;;;6.40;91.60;;;;;;5066627;28;19961;-88
2023/01/25 02:09:27;;;;;;;;;;;6.40;91.20;;;;;;5074474;28;19934;-88
2023/01/25 02:11:53;;;;;;;;;;;6.40;91.70;;;;;;5074347;28;19958;-88
2023/01/25 02:14:19;;;;;;;;;;;6.50;92.00;;;;;;5056075;28;19980;-88
2023/01/25 02:16:45;;;;;;;;;;;6.50;91.90;;;;;;5074298;28;19990;-88
2023/01/25 02:19:16;;;;;;;;;;;6.50;91.80;;;;;;5074473;28;20011;-88
2023/01/25 02:21:43;;;;;;;;;;;6.40;92.00;;;;;;5073667;28;19942;-89
2023/01/25 02:24:19;;;;;;;;;;;6.40;92.00;;;;;;5073935;28;19996;-89
2023/01/25 02:26:45;;;;;;;;;;;6.30;91.90;;;;;;5073548;28;19959;-89
2023/01/25 02:29:11;;;;;;;;;;;6.30;92.00;;;;;;5074004;28;19943;-88
2023/01/25 02:31:37;;;;;;;;;;;6.20;92.00;;;;;;5073832;28;19995;-88
2023/01/25 02:34:02;;;;;;;;;;;6.20;92.00;;;;;;5073954;28;20407;-88
2023/01/25 02:36:29;;;;;;;;;;;6.10;92.20;;;;;;5073890;28;19938;-88
2023/01/25 02:38:58;;;;;;;;;;;6.00;92.20;;;;;;5073600;28;20287;-88
2023/01/25 02:41:35;;;;;;;;;;;6.00;92.40;;;;;;5073756;28;20348;-88
2023/01/25 02:44:03;;;;;;;;;;;6.10;92.40;;;;;;5073764;28;19937;-88
2023/01/25 02:46:38;;;;;;;;;;;6.10;92.40;;;;;;5073924;28;19961;-88
2023/01/25 02:49:04;;;;;;;;;;;6.30;92.10;;;;;;5073667;28;19986;-88
2023/01/25 02:51:31;;;;;;;;;;;6.30;92.00;;;;;;5073234;28;19951;-88
2023/01/25 02:53:57;;;;;;;;;;;6.40;91.90;;;;;;5073527;28;19983;-88
2023/01/25 02:56:23;;;;;;;;;;;6.40;91.80;;;;;;5073373;28;20303;-88
2023/01/25 02:58:49;;;;;;;;;;;6.50;91.80;;;;;;5073074;28;19942;-88
2023/01/25 03:01:15;;;;;;;;;;;6.50;91.60;;;;;;5073422;28;19946;-88
2023/01/25 03:03:41;;;;;;;;;;;6.50;91.40;;;;;;5073415;28;19945;-87
2023/01/25 03:06:06;;;;;;;;;;;6.40;91.40;;;;;;5073357;28;19961;-88
2023/01/25 03:08:32;;;;;;;;;;;6.50;91.40;;;;;;5073394;28;20026;-88
2023/01/25 03:10:59;;;;;;;;;;;6.40;91.40;;;;;;5073368;28;19942;-88
2023/01/25 03:13:25;;;;;;;;;;;6.30;91.00;;;;;;5073077;28;20065;-88
2023/01/25 03:15:51;;;;;;;;;;;6.20;90.80;;;;;;5073279;28;19938;-88
2023/01/25 03:18:17;;;;;;;;;;;6.00;90.30;;;;;;5055284;28;19948;-88
2023/01/25 03:20:42;;;;;;;;;;;5.80;90.30;;;;;;5063002;28;19962;-88
2023/01/25 03:23:08;;;;;;;;;;;5.70;90.60;;;;;;5053207;28;19944;-88
2023/01/25 03:25:33;;;;;;;;;;;5.60;90.40;;;;;;5053159;28;19990;-88
2023/01/25 03:27:59;;;;;;;;;;;5.40;90.50;;;;;;5035137;28;19967;-88
2023/01/25 03:30:24;;;;;;;;;;;5.20;91.30;;;;;;5053047;28;19943;-88
2023/01/25 03:32:51;;;;;;;;;;;5.20;91.40;;;;;;5053037;28;20319;-88
2023/01/25 03:35:17;;;;;;;;;;;5.20;91.40;;;;;;5053008;28;19987;-88
2023/01/25 03:37:43;;;;;;;;;;;5.20;91.50;;;;;;5052907;28;20352;-88
2023/01/25 03:40:09;;;;;;;;;;;5.40;91.70;;;;;;5052972;28;20424;-88
2023/01/25 03:42:34;;;;;;;;;;;5.60;91.70;;;;;;5052404;28;19990;-89
2023/01/25 03:45:00;;;;;;;;;;;5.70;91.60;;;;;;5063011;28;20415;-88
2023/01/25 03:47:25;;;;;;;;;;;5.70;91.60;;;;;;5072801;28;19970;-88
2023/01/25 03:49:51;;;;;;;;;;;5.70;91.60;;;;;;5072856;28;20299;-88
2023/01/25 03:52:16;;;;;;;;;;;5.80;91.60;;;;;;5072778;28;19953;-88
2023/01/25 03:54:42;;;;;;;;;;;5.90;90.90;;;;;;5072801;28;19939;-88
2023/01/25 03:57:07;;;;;;;;;;;5.70;90.50;;;;;;5072716;28;19944;-88
2023/01/25 03:59:33;;;;;;;;;;;5.60;90.40;;;;;;5072790;28;19949;-88
2023/01/25 04:01:58;;;;;;;;;;;5.40;90.90;;;;;;5072814;28;19937;-88
2023/01/25 04:04:24;;;;;;;;;;;5.40;91.00;;;;;;5072773;28;19943;-88
2023/01/25 04:06:49;;;;;;;;;;;5.50;91.40;;;;;;5072647;28;19959;-88
2023/01/25 04:09:15;;;;;;;;;;;5.50;91.20;;;;;;5054750;28;19964;-88
2023/01/25 04:11:40;;;;;;;;;;;5.50;91.20;;;;;;5066694;28;20452;-88
2023/01/25 04:14:06;;;;;;;;;;;5.40;91.40;;;;;;5072232;28;19981;-88
2023/01/25 04:16:31;;;;;;;;;;;5.40;91.10;;;;;;5072603;28;19937;-88
2023/01/25 04:18:57;;;;;;;;;;;5.40;91.20;;;;;;5072575;28;19942;-88
2023/01/25 04:21:23;;;;;;;;;;;5.30;91.10;;;;;;5072563;28;19984;-88
2023/01/25 04:23:48;;;;;;;;;;;5.30;90.90;;;;;;5072561;28;19966;-88
2023/01/25 04:26:14;;;;;;;;;;;5.10;90.90;;;;;;5072457;28;20320;-88
2023/01/25 04:28:39;;;;;;;;;;;5.00;90.90;;;;;;5072506;28;19975;-88
2023/01/25 04:31:05;;;;;;;;;;;4.80;91.00;;;;;;5072532;28;20384;-88
2023/01/25 04:33:31;;;;;;;;;;;4.90;91.10;;;;;;5072712;28;20392;-88
2023/01/25 04:35:57;;;;;;;;;;;5.20;91.20;;;;;;5072444;28;19942;-88
2023/01/25 04:38:22;;;;;;;;;;;5.30;90.90;;;;;;5072442;28;20357;-88
2023/01/25 04:40:49;;;;;;;;;;;5.30;92.20;;;;;;5055251;28;20003;-87
2023/01/25 04:43:15;;;;;;;;;;;5.40;92.10;;;;;;5052369;28;19983;-88
2023/01/25 04:45:41;;;;;;;;;;;5.10;91.60;;;;;;5052348;28;19988;-88
2023/01/25 04:48:08;;;;;;;;;;;5.10;92.20;;;;;;5052260;28;19967;-88
2023/01/25 04:50:38;;;;;;;;;;;5.10;92.30;;;;;;5052285;28;19938;-88
2023/01/25 04:53:03;;;;;;;;;;;5.10;92.40;;;;;;5052157;28;19955;-88
2023/01/25 04:55:29;;;;;;;;;;;5.10;92.50;;;;;;5037173;28;19941;-88
2023/01/25 04:57:54;;;;;;;;;;;5.30;92.50;;;;;;5055778;28;19944;-88
2023/01/25 05:00:20;;;;;;;;;;;5.40;92.60;;;;;;5056030;28;19971;-88
2023/01/25 05:02:45;;;;;;;;;;;5.50;92.30;;;;;;5055909;28;19949;-88
2023/01/25 05:05:11;;;;;;;;;;;5.40;92.10;;;;;;5037822;28;20310;-88
2023/01/25 05:07:37;;;;;;;;;;;5.40;92.00;;;;;;5055561;28;20426;-88
2023/01/25 05:10:03;;;;;;;;;;;5.60;92.20;;;;;;5066057;28;19945;-88
2023/01/25 05:12:28;;;;;;;;;;;5.70;91.90;;;;;;5075522;28;20146;-88
2023/01/25 05:14:54;;;;;;;;;;;5.90;91.50;;;;;;5075360;28;20337;-88
2023/01/25 05:17:19;;;;;;;;;;;5.90;90.80;;;;;;5075169;28;20351;-88
2023/01/25 05:19:45;;;;;;;;;;;5.90;90.60;;;;;;5075411;28;19945;-88
2023/01/25 05:22:14;;;;;;;;;;;5.90;90.30;;;;;;5075339;28;20286;-87
2023/01/25 05:24:44;;;;;;;;;;;5.80;89.90;;;;;;5075380;28;20399;-88
2023/01/25 05:27:10;;;;;;;;;;;5.60;89.80;;;;;;5075499;28;20077;-88
2023/01/25 05:29:38;;;;;;;;;;;5.40;89.90;;;;;;5057044;28;19944;-88
2023/01/25 05:32:07;;;;;;;;;;;5.30;90.20;;;;;;5075181;28;19943;-88
2023/01/25 05:34:32;;;;;;;;;;;5.10;90.30;;;;;;5058244;28;19952;-88
2023/01/25 05:36:58;;;;;;;;;;;5.00;90.90;;;;;;5054806;28;20020;-88
2023/01/25 05:39:23;;;;;;;;;;;5.20;91.90;;;;;;5059624;28;19951;-88
2023/01/25 05:41:49;;;;;;;;;;;5.20;91.80;;;;;;5074662;28;20015;-88
2023/01/25 05:44:15;;;;;;;;;;;5.10;91.70;;;;;;5074995;28;20404;-88
2023/01/25 05:46:40;;;;;;;;;;;5.00;91.00;;;;;;5056809;28;19966;-88
2023/01/25 05:49:06;;;;;;;;;;;4.90;91.10;;;;;;5074868;28;19994;-88
2023/01/25 05:51:32;;;;;;;;;;;4.70;91.90;;;;;;5074824;28;20417;-88
2023/01/25 05:53:57;;;;;;;;;;;4.70;91.90;;;;;;5074724;28;20404;-88
2023/01/25 05:56:23;;;;;;;;;;;4.70;91.90;;;;;;5074609;28;19952;-88
2023/01/25 05:58:56;;;;;;;;;;;4.70;91.90;;;;;;5074629;28;19937;-88
2023/01/25 06:01:22;;;;;;;;;;;4.70;92.20;;;;;;5074614;28;20389;-88
2023/01/25 06:03:48;;;;;;;;;;;4.70;92.40;;;;;;5074853;28;19975;-88
2023/01/25 06:06:13;;;;;;;;;;;4.90;92.20;;;;;;5067725;28;20421;-88
2023/01/25 06:08:39;;;;;;;;;;;5.00;91.90;;;;;;5053262;28;20025;-88
2023/01/25 06:11:05;;;;;;;;;;;4.90;91.60;;;;;;5053458;28;19959;-88
2023/01/25 06:13:30;;;;;;;;;;;4.90;91.70;;;;;;5039094;28;19972;-88
2023/01/25 06:15:56;;;;;;;;;;;4.80;91.70;;;;;;5074198;28;20313;-88
2023/01/25 06:18:23;;;;;;;;;;;4.70;92.00;;;;;;5074173;28;20398;-88
2023/01/25 06:20:49;;;;;;;;;;;4.70;91.90;;;;;;5073266;28;19954;-88
2023/01/25 06:23:15;;;;;;;;;;;4.60;92.00;;;;;;5072557;28;19942;-88
2023/01/25 06:25:40;;;;;;;;;;;4.50;91.90;;;;;;5055459;28;19945;-88
2023/01/25 06:28:06;;;;;;;;;;;4.50;91.70;;;;;;5072783;28;19947;-88
2023/01/25 06:30:31;;;;;;;;;;;4.40;91.90;;;;;;5063084;28;19943;-88
2023/01/25 06:32:57;;;;;;;;;;;4.40;92.20;;;;;;5063135;28;20568;-86
2023/01/25 06:35:23;;;;;;;;;;;4.40;92.50;;;;;;5067439;28;19951;-87
2023/01/25 06:37:48;;;;;;;;;;;4.40;92.80;;;;;;5066490;28;19984;-87
2023/01/25 06:40:14;;;;;;;;;;;4.40;92.50;;;;;;5072542;28;19944;-87
2023/01/25 06:42:39;;;;;;;;;;;4.40;92.50;;;;;;5065673;28;19957;-87
2023/01/25 06:45:05;;;;;;;;;;;4.50;92.40;;;;;;5054358;28;19991;-87
2023/01/25 06:47:31;;;;;;;;;;;4.50;92.30;;;;;;5070616;28;19957;-88
2023/01/25 06:49:56;;;;;;;;;;;4.50;92.20;;;;;;5067532;28;19951;-87
2023/01/25 06:52:22;;;;;;;;;;;4.40;92.00;;;;;;5070324;28;19965;-88
2023/01/25 06:54:47;;;;;;;;;;;4.40;92.20;;;;;;5067711;28;19957;-88
2023/01/25 06:57:13;;;;;;;;;;;4.50;92.20;;;;;;5066933;28;20020;-88
2023/01/25 06:59:38;;;;;;;;;;;4.60;92.30;;;;;;5061976;28;19955;-88
2023/01/25 07:02:04;;;;;;;;;;;4.60;91.90;;;;;;5067534;28;19946;-87
2023/01/25 07:04:30;;;;;;;;;;;4.70;91.80;;;;;;5070715;28;19967;-87
2023/01/25 07:06:55;;;;;;;;;;;4.80;91.80;;;;;;5069865;28;20412;-86
2023/01/25 07:09:23;;;;;;;;;;;5.00;91.80;;;;;;5071150;28;19945;-87
2023/01/25 07:11:49;;;;;;;;;;;5.10;91.70;;;;;;5070458;28;19951;-88
2023/01/25 07:14:14;;;;;;;;;;;5.30;91.60;;;;;;5071073;28;19958;-87
2023/01/25 07:16:40;;;;;;;;;;;5.40;91.30;;;;;;5062788;28;19942;-87
2023/01/25 07:19:06;;;;;;;;;;;5.40;90.60;;;;;;5063942;28;19951;-87
2023/01/25 07:21:32;;;;;;;;;;;5.30;90.70;;;;;;5072113;28;19942;-88
2023/01/25 07:24:02;;;;;;;;;;;5.20;91.00;;;;;;5067021;28;20009;-88
2023/01/25 07:26:28;;;;;;;;;;;5.30;91.20;;;;;;5066745;28;20412;-88
2023/01/25 07:28:55;;;;;;;;;;;5.30;91.30;;;;;;5040878;28;19956;-88
2023/01/25 07:31:21;;;;;;;;;;;5.30;91.30;;;;;;5044583;28;19992;-88
2023/01/25 07:33:50;;;;;;;;;;;5.30;91.40;;;;;;5031633;28;20302;-88
2023/01/25 07:36:16;;;;;;;;;;;5.30;91.50;;;;;;5055550;28;19941;-88
2023/01/25 07:38:42;;;;;;;;;;;5.40;91.60;;;;;;5061866;28;20327;-87
2023/01/25 07:41:07;;;;;;;;;;;5.70;91.40;;;;;;5067786;28;20058;-88
2023/01/25 07:43:33;;;;;;;;;;;5.90;91.00;;;;;;5064984;28;19953;-88
2023/01/25 07:46:02;;;;;;;;;;;6.00;90.30;;;;;;5058817;28;19946;-87
2023/01/25 07:48:28;;;;;;;;;;;6.20;89.80;;;;;;5063013;28;20315;-87
2023/01/25 07:51:11;;;;;;;;;;;6.20;89.60;;;;;;5060620;28;19948;-88
2023/01/25 07:53:41;;;;;;;;;;;6.20;89.20;;;;;;5063148;28;19986;-87
2023/01/25 07:56:08;;;;;;;;;;;6.00;89.50;;;;;;5064618;28;20424;-87
2023/01/25 07:58:33;;;;;;;;;;;6.10;89.80;;;;;;5072209;28;20404;-88
2023/01/25 08:01:09;;;;;;;;;;;6.10;90.10;;;;;;5064086;28;19949;-88
2023/01/25 08:03:35;;;;;;;;;;;6.10;89.90;;;;;;5071940;28;20317;-88
2023/01/25 08:06:03;;;;;;;;;;;6.20;90.00;;;;;;5062668;28;19946;-88
2023/01/25 08:08:28;;;;;;;;;;;6.30;90.40;;;;;;5065450;28;20411;-88
2023/01/25 08:10:54;;;;;;;;;;;6.40;90.50;;;;;;5056053;28;19985;-88
2023/01/25 08:13:19;;;;;;;;;;;6.60;90.50;;;;;;5066708;28;19942;-88
2023/01/25 08:15:51;;;;;;;;;;;6.80;90.10;;;;;;5068690;28;19954;-87
2023/01/25 08:18:17;;;;;;;;;;;6.90;90.00;;;;;;5069637;28;20392;-88
2023/01/25 08:20:42;;;;;;;;;;;6.90;89.90;;;;;;5060582;28;19968;-88
2023/01/25 08:23:08;;;;;;;;;;;7.00;90.00;;;;;;5071566;28;19947;-88
2023/01/25 08:25:33;;;;;;;;;;;7.10;90.00;;;;;;5068551;28;19942;-88
2023/01/25 08:27:59;;;;;;;;;;;7.30;89.60;;;;;;5067306;28;19975;-87
2023/01/25 08:30:24;;;;;;;;;;;7.40;88.40;;;;;;5074736;28;19979;-88
2023/01/25 08:32:50;;;;;;;;;;;7.50;87.00;;;;;;5074261;28;19954;-87
2023/01/25 08:35:15;;;;;;;;;;;7.60;86.90;;;;;;5074450;28;19946;-88
2023/01/25 08:37:41;;;;;;;;;;;7.60;86.80;;;;;;5074135;28;19943;-88
2023/01/25 08:40:07;;;;;;;;;;;7.70;87.20;;;;;;5074461;28;19946;-88
2023/01/25 08:42:32;;;;;;;;;;;7.70;86.60;;;;;;5074439;28;19944;-89
2023/01/25 08:44:58;;;;;;;;;;;7.70;86.70;;;;;;5070263;28;19947;-88
2023/01/25 08:47:23;;;;;;;;;;;7.70;86.90;;;;;;5073024;28;19967;-88
2023/01/25 08:49:49;;;;;;;;;;;7.90;86.80;;;;;;5073826;28;19949;-88
2023/01/25 08:52:15;;;;;;;;;;;8.10;86.40;;;;;;5055568;28;20052;-88
2023/01/25 08:54:43;;;;;;;;;;;8.20;85.90;;;;;;5073357;28;20467;-87
2023/01/25 08:57:08;;;;;;;;;;;8.40;85.20;;;;;;5055710;28;19950;-88
2023/01/25 08:59:34;;;;;;;;;;;8.40;83.70;;;;;;5071505;28;20428;-88
2023/01/25 09:01:59;;;;;;;;;;;8.60;83.60;;;;;;5074454;28;20260;-88
2023/01/25 09:04:27;;;;;;;;;;;8.60;80.70;;;;;;5069247;28;19951;-87
2023/01/25 09:06:53;;;;;;;;;;;8.80;80.60;;;;;;5072082;28;19968;-87
2023/01/25 09:09:21;;;;;;;;;;;8.80;80.60;;;;;;5074720;28;19943;-87
2023/01/25 09:11:46;;;;;;;;;;;8.90;80.60;;;;;;5073064;28;19949;-88
2023/01/25 09:14:12;;;;;;;;;;;8.90;80.20;;;;;;5071074;23;20457;-88
2023/01/25 09:16:38;;;;;;;;;;;8.90;79.60;;;;;;5083980;28;19948;-88
2023/01/25 09:19:04;;;;;;;;;;;8.90;78.00;;;;;;5091891;28;19950;-88
2023/01/25 09:21:30;;;;;;;;;;;8.90;77.60;;;;;;5092673;28;19942;-88
2023/01/25 09:23:56;;;;;;;;;;;8.90;75.60;;;;;;5094887;28;20481;-88
2023/01/25 09:26:21;;;;;;;;;;;8.90;75.20;;;;;;5075690;28;20055;-88
2023/01/25 09:28:48;;;;;;;;;;;9.00;75.00;;;;;;5098647;28;19944;-88
2023/01/25 09:31:14;;;;;;;;;;;9.10;75.60;;;;;;5089051;28;20069;-88
2023/01/25 09:33:40;;;;;;;;;;;9.10;72.40;;;;;;5093011;28;20043;-88
2023/01/25 09:36:06;;;;;;;;;;;9.10;71.10;;;;;;5093624;28;20016;-88
2023/01/25 09:38:31;;;;;;;;;;;9.40;68.80;;;;;;5094057;28;19968;-87
2023/01/25 09:41:03;;;;;;;;;;;9.60;68.20;;;;;;5087666;28;20661;-87
2023/01/25 09:43:34;;;;;;;;;;;9.70;68.90;;;;;;5093654;28;20453;-87
2023/01/25 09:46:07;;;;;;;;;;;9.70;69.60;;;;;;5093929;28;19951;-87
2023/01/25 09:48:41;;;;;;;;;;;9.70;71.00;;;;;;5093873;28;19942;-88
2023/01/25 09:51:18;;;;;;;;;;;9.60;70.50;;;;;;5089777;28;19944;-88
2023/01/25 09:53:51;;;;;;;;;;;9.60;69.90;;;;;;5083808;28;20448;-88
2023/01/25 09:56:29;;;;;;;;;;;9.60;70.60;;;;;;5081269;28;20394;-88
2023/01/25 09:58:57;;;;;;;;;;;9.80;70.70;;;;;;5082534;28;20407;-88
2023/01/25 10:01:36;;;;;;;;;;;9.70;69.20;;;;;;5087467;28;19994;-88
2023/01/25 10:04:11;;;;;;;;;;;9.70;69.40;;;;;;5089207;28;19951;-88
2023/01/25 10:06:38;;;;;;;;;;;9.90;69.20;;;;;;5074244;28;20418;-88
2023/01/25 10:09:03;;;;;;;;;;;10.00;69.00;;;;;;5078981;28;20025;-88
2023/01/25 10:11:32;;;;;;;;;;;10.10;68.50;;;;;;5083108;28;20058;-88
2023/01/25 10:13:58;;;;;;;;;;;10.40;65.70;;;;;;5070707;28;20039;-88
2023/01/25 10:16:30;;;;;;;;;;;10.40;66.20;;;;;;5074793;28;19967;-88
2023/01/25 10:19:01;;;;;;;;;;;10.40;65.80;;;;;;5077404;28;20433;-88
2023/01/25 10:21:34;;;;;;;;;;;10.30;66.10;;;;;;5080906;28;19993;-88
2023/01/25 10:24:11;;;;;;;;;;;10.40;64.80;;;;;;5057648;28;20606;-87
2023/01/25 10:26:39;;;;;;;;;;;10.40;64.00;;;;;;5076378;28;20305;-88
2023/01/25 10:29:10;;;;;;;;;;;10.30;64.30;;;;;;5080494;28;19946;-88
2023/01/25 10:31:41;;;;;;;;;;;10.20;63.50;;;;;;5081163;28;19944;-88
2023/01/25 10:34:27;;;;;;;;;;;10.20;63.90;;;;;;5079272;28;19960;-88
2023/01/25 10:36:54;;;;;;;;;;;10.10;65.60;;;;;;5065134;28;20007;-88
2023/01/25 10:39:19;;;;;;;;;;;10.30;63.70;;;;;;5080201;28;20352;-88
2023/01/25 10:41:54;;;;;;;;;;;10.40;62.00;;;;;;5082289;28;19950;-88
2023/01/25 10:44:23;;;;;;;;;;;10.50;61.60;;;;;;5081677;28;20081;-88
2023/01/25 10:47:00;;;;;;;;;;;10.50;62.80;;;;;;5073735;28;20017;-88
2023/01/25 10:49:38;;;;;;;;;;;10.60;63.70;;;;;;5085459;28;19953;-88
2023/01/25 10:52:14;;;;;;;;;;;10.50;62.60;;;;;;5073227;28;19958;-88
2023/01/25 10:54:40;;;;;;;;;;;10.60;63.50;;;;;;5082741;28;19942;-88
2023/01/25 10:57:07;;;;;;;;;;;10.60;61.90;;;;;;5082083;28;19946;-88
2023/01/25 10:59:32;;;;;;;;;;;10.60;61.10;;;;;;5085892;28;19954;-88
2023/01/25 11:02:17;;;;;;;;;;;10.50;63.30;;;;;;5076127;28;19979;-88
2023/01/25 11:04:46;;;;;;;;;;;10.60;64.20;;;;;;5078396;28;20022;-88
2023/01/25 11:07:24;;;;;;;;;;;10.60;64.10;;;;;;5079148;28;19960;-88
2023/01/25 11:09:50;;;;;;;;;;;10.80;63.40;;;;;;5083750;28;19936;-89
2023/01/25 11:12:19;;;;;;;;;;;10.90;62.30;;;;;;5093294;28;19948;-88
2023/01/25 11:14:48;;;;;;;;;;;11.10;62.00;;;;;;5089667;28;20445;-89
2023/01/25 11:17:30;;;;;;;;;;;11.20;59.90;;;;;;5093724;28;19941;-88
2023/01/25 11:20:10;;;;;;;;;;;11.40;59.50;;;;;;5081384;28;19948;-88
2023/01/25 11:22:36;;;;;;;;;;;11.40;60.90;;;;;;5073122;28;19952;-88
2023/01/25 11:25:21;;;;;;;;;;;11.40;59.10;;;;;;5073196;28;19937;-88
2023/01/25 11:27:47;;;;;;;;;;;11.40;58.90;;;;;;5055409;28;20012;-88
2023/01/25 11:30:20;;;;;;;;;;;11.40;58.40;;;;;;5086309;28;19944;-88
2023/01/25 11:32:46;;;;;;;;;;;11.40;57.90;;;;;;5093294;28;19945;-88
2023/01/25 11:35:15;;;;;;;;;;;11.50;58.80;;;;;;5093156;28;19946;-88
2023/01/25 11:37:52;;;;;;;;;;;11.70;57.80;;;;;;5093246;28;19947;-89
2023/01/25 11:40:17;;;;;;;;;;;11.90;58.20;;;;;;5060940;28;19944;-88
2023/01/25 11:43:01;;;;;;;;;;;12.00;57.10;;;;;;5072918;28;19954;-88
2023/01/25 11:45:36;;;;;;;;;;;12.10;56.00;;;;;;5072864;28;20371;-88
2023/01/25 11:48:05;;;;;;;;;;;12.20;54.80;;;;;;5073096;28;19961;-88
2023/01/25 11:50:33;;;;;;;;;;;12.30;56.30;;;;;;5088214;28;20044;-88
2023/01/25 11:53:21;;;;;;;;;;;12.20;57.10;;;;;;5080728;28;20417;-88
2023/01/25 11:55:56;;;;;;;;;;;12.20;56.00;;;;;;5072324;28;20001;-88
2023/01/25 11:58:31;;;;;;;;;;;12.30;56.60;;;;;;5073119;28;19950;-88
2023/01/25 12:01:06;;;;;;;;;;;12.50;58.40;;;;;;5066174;28;19946;-88
2023/01/25 12:03:45;;;;;;;;;;;12.90;56.70;;;;;;5087251;28;20001;-88
2023/01/25 12:06:30;;;;;;;;;;;13.50;54.90;;;;;;5076814;28;19989;-89
2023/01/25 12:09:07;;;;;;;;;;;14.30;50.90;;;;;;5083222;28;19944;-88
2023/01/25 12:11:32;;;;;;;;;;;15.40;46.60;;;;;;5086756;28;19952;-89
2023/01/25 12:14:15;;;;;;;;;;;16.10;46.50;;;;;;5089140;28;20398;-89
2023/01/25 12:16:46;;;;;;;;;;;16.40;44.40;;;;;;5087282;28;20387;-88
2023/01/25 12:19:24;;;;;;;;;;;16.80;44.10;;;;;;5092923;28;19944;-88
2023/01/25 12:21:52;;;;;;;;;;;16.70;45.40;;;;;;5089488;28;19942;-88
2023/01/25 12:24:36;;;;;;;;;;;16.60;44.30;;;;;;5094921;28;20418;-88
2023/01/25 12:27:10;;;;;;;;;;;16.40;43.80;;;;;;5081993;28;19984;-88
2023/01/25 12:29:48;;;;;;;;;;;16.50;44.10;;;;;;5077856;28;19945;-89
2023/01/25 12:32:25;;;;;;;;;;;16.30;44.40;;;;;;5087324;28;19944;-88
2023/01/25 12:34:54;;;;;;;;;;;16.70;44.10;;;;;;5080996;28;19945;-88
2023/01/25 12:37:23;;;;;;;;;;;17.50;43.30;;;;;;5084040;28;20014;-89
2023/01/25 12:39:48;;;;;;;;;;;18.20;41.80;;;;;;5082955;28;19990;-89
2023/01/25 12:42:14;;;;;;;;;;;18.60;39.90;;;;;;5093232;28;20617;-89
2023/01/25 12:44:58;;;;;;;;;;;18.90;39.80;;;;;;5081725;28;19959;-88
2023/01/25 12:47:31;;;;;;;;;;;19.00;39.60;;;;;;5080099;28;20681;-89
2023/01/25 12:50:15;;;;;;;;;;;19.20;38.10;;;;;;5081229;28;19945;-89
2023/01/25 12:52:44;;;;;;;;;;;19.40;38.30;;;;;;5082261;28;19968;-89
2023/01/25 12:55:14;;;;;;;;;;;19.70;37.70;;;;;;5090641;28;20027;-89
2023/01/25 12:57:43;;;;;;;;;;;18.90;38.20;;;;;;5082265;28;19972;-88
2023/01/25 13:00:15;;;;;;;;;;;18.50;39.60;;;;;;5085139;28;19940;-89
2023/01/25 13:02:47;;;;;;;;;;;18.40;39.80;;;;;;5074675;28;19950;-88
2023/01/25 13:05:32;;;;;;;;;;;18.40;39.20;;;;;;5088739;28;19954;-89
2023/01/25 13:08:18;;;;;;;;;;;18.50;40.10;;;;;;5082438;28;19966;-89
2023/01/25 13:10:52;;;;;;;;;;;19.60;38.50;;;;;;5037177;28;19962;-89
2023/01/25 13:13:25;;;;;;;;;;;20.60;36.80;;;;;;5074954;28;19962;-89
2023/01/25 13:15:54;;;;;;;;;;;20.90;35.80;;;;;;5062419;28;19957;-89
2023/01/25 13:18:32;;;;;;;;;;;19.70;36.20;;;;;;5057835;28;20027;-89
2023/01/25 13:21:05;;;;;;;;;;;19.70;37.10;;;;;;5057180;28;19944;-89
2023/01/25 13:23:31;;;;;;;;;;;19.60;37.80;;;;;;5059928;28;20035;-89
2023/01/25 13:26:29;;;;;;;;;;;20.40;36.60;;;;;;5067114;28;20030;-89
2023/01/25 13:28:55;;;;;;;;;;;20.90;35.80;;;;;;5034688;28;19955;-89
2023/01/25 13:31:27;;;;;;;;;;;20.80;34.90;;;;;;5066146;28;20432;-89
2023/01/25 13:33:52;;;;;;;;;;;21.00;35.20;;;;;;5062517;28;19944;-89
2023/01/25 13:36:37;;;;;;;;;;;20.90;35.60;;;;;;5059833;28;19949;-89
2023/01/25 13:39:21;;;;;;;;;;;21.60;34.40;;;;;;5068162;28;19949;-89
2023/01/25 13:42:00;;;;;;;;;;;22.40;33.30;;;;;;5065805;28;19939;-89
2023/01/25 13:44:32;;;;;;;;;;;22.00;32.60;;;;;;5069781;28;19948;-88
2023/01/25 13:47:00;;;;;;;;;;;20.90;33.70;;;;;;5058623;28;20007;-89
2023/01/25 13:49:29;;;;;;;;;;;21.30;33.00;;;;;;5067993;28;19987;-89
2023/01/25 13:51:55;;;;;;;;;;;21.80;32.80;;;;;;5042955;28;19949;-89
2023/01/25 13:54:21;;;;;;;;;;;22.10;32.60;;;;;;5060731;28;19959;-89
2023/01/25 13:56:46;;;;;;;;;;;21.70;32.60;;;;;;5065700;28;19945;-88
2023/01/25 13:59:26;;;;;;;;;;;21.00;33.10;;;;;;5050366;28;20011;-88
2023/01/25 14:01:51;;;;;;;;;;;19.90;36.50;;;;;;5071471;28;19945;-88
2023/01/25 14:04:17;;;;;;;;;;;19.10;37.30;;;;;;5065473;28;19946;-88
2023/01/25 14:06:43;;;;;;;;;;;18.90;37.30;;;;;;5074337;28;20047;-88
2023/01/25 14:09:16;;;;;;;;;;;19.60;36.50;;;;;;5065214;28;20001;-88
2023/01/25 14:11:44;;;;;;;;;;;19.70;35.60;;;;;;5054020;28;19952;-88
2023/01/25 14:14:23;;;;;;;;;;;19.90;36.00;;;;;;5039445;28;20039;-88
2023/01/25 14:17:07;;;;;;;;;;;20.20;35.50;;;;;;5062078;28;20370;-88
2023/01/25 14:19:38;;;;;;;;;;;19.80;37.10;;;;;;5056352;28;20040;-88
2023/01/25 14:22:09;;;;;;;;;;;19.40;37.80;;;;;;5089159;28;20048;-88
2023/01/25 14:24:35;;;;;;;;;;;20.30;34.50;;;;;;5082076;28;20039;-88
2023/01/25 14:27:02;;;;;;;;;;;19.80;35.70;;;;;;5081939;28;20065;-89
2023/01/25 14:29:27;;;;;;;;;;;20.10;35.60;;;;;;5073565;28;20127;-88
2023/01/25 14:31:53;;;;;;;;;;;20.00;35.30;;;;;;5078464;28;20473;-88
2023/01/25 14:34:19;;;;;;;;;;;19.40;35.70;;;;;;5090247;28;20491;-89